Flight Track Log - Related Links

Times and Time Zones

All times are in EDT time to prevent confusion due to time zone crossing. See the TAM3812 flight status page for this flight to view local times or setup timezone preferences in your user account.

Time Position Orientation Groundspeed Altitude Reporting Facility
EDT Latitude Longitude Course Direction KTS MPH feet Rate Location/Type
Fri 08:50:03 PM -23.6250 -46.6600 84° East 124 143  Level FlightAware ADS-B
Fri 08:51:01 PM -23.6240 -46.6470 85° East 124 143 116 Level FlightAware ADS-B
Fri 08:52:19 PM -23.6240 -46.6460 90° East 124 143 119 Level FlightAware ADS-B
Fri 08:54:00 PM -23.4916 -46.8173 310° West  Level Estimated
Fri 08:54:55 PM -23.6240 -46.6460 310° West 124 143  Level FlightAware ADS-B
Fri 08:55:00 PM -23.4129 -46.9189 310° West  Level Estimated
Fri 08:55:49 PM -23.6250 -46.6600 266° West 124 143  Level FlightAware ADS-B
Fri 08:56:48 PM -23.6240 -46.6460 86° East 124 143 137 Level FlightAware ADS-B
Fri 08:58:52 PM -23.6240 -46.6470 270° West 124 143 142 Level FlightAware ADS-B
Fri 08:59:28 PM -23.6230 -46.6450 61° Northeast 124 143 153 Level FlightAware ADS-B
Fri 09:00:13 PM -23.6250 -46.6600 262° West 124 143 156 Level FlightAware ADS-B
Fri 09:00:42 PM -23.6230 -46.6450 82° East 124 143 161 Level FlightAware ADS-B
Fri 09:01:34 PM -23.6250 -46.6600 262° West 124 143 164 Level FlightAware ADS-B
Fri 09:02:42 PM -23.6240 -46.6460 86° East 124 143 169 Level FlightAware ADS-B
Fri 09:04:41 PM -23.6250 -46.6600 266° West 124 143 177 Level FlightAware ADS-B
Fri 09:05:06 PM -23.6240 -46.6470 85° East 124 143 194 Level FlightAware ADS-B
Fri 09:05:17 PM -23.6250 -46.6600 265° West 124 143 197 Level FlightAware ADS-B
Fri 09:06:06 PM -23.6240 -46.6470 85° East 124 143 199 Level FlightAware ADS-B
Fri 09:06:38 PM -23.6250 -46.6600 265° West 124 143 207 Level FlightAware ADS-B
Fri 09:08:16 PM -23.6240 -46.6470 85° East 124 143 213 Level FlightAware ADS-B
Fri 09:08:52 PM -23.6230 -46.6450 61° Northeast 124 143 232 Level FlightAware ADS-B
Fri 09:09:21 PM -23.6240 -46.6470 241° Southwest 124 143 240 Level FlightAware ADS-B
Fri 09:09:37 PM -23.6250 -46.6600 265° West 124 143 247 Level FlightAware ADS-B
Fri 09:10:37 PM -23.6230 -46.6450 82° East 124 143 251 Level FlightAware ADS-B
Fri 09:10:44 PM -23.6250 -46.6600 262° West 124 143 267 Level FlightAware ADS-B
Fri 09:11:50 PM -23.6240 -46.6460 86° East 124 143 269 Level FlightAware ADS-B
Fri 09:12:08 PM -23.6250 -46.6600 266° West 124 143 289 Level FlightAware ADS-B
Fri 09:13:06 PM -23.6240 -46.6460 86° East 124 143 295 Level FlightAware ADS-B
Fri 09:14:07 PM -23.6250 -46.6600 266° West 124 143 317 Level FlightAware ADS-B
Fri 09:15:20 PM -23.6160 -46.6480 51° Northeast 124 143 343 Level FlightAware ADS-B
Fri 09:17:00 PM -23.4926 -46.8079 310° West  Level Estimated
Fri 09:17:46 PM -23.6250 -46.6590 310° West  Level FlightAware ADS-B
Fri 09:19:07 PM -23.6270 -46.6580 155° Southeast 488 Level FlightAware ADS-B
Fri 09:19:32 PM -23.6280 -46.6570 138° Southeast 579 Level FlightAware ADS-B
Fri 09:22:00 PM -23.4450 -46.8933 310° West  Level Estimated
Fri 09:23:00 PM -23.3707 -46.9889 310° West  Level Estimated
Fri 09:24:00 PM -23.3010 -47.0783 310° West  Level Estimated
Fri 09:25:00 PM -23.2313 -47.1677 310° West  Level Estimated
Fri 09:26:00 PM -23.1615 -47.2570 310° West  Level Estimated
Fri 09:26:22 PM -23.6110 -46.7100 239° Southwest 215 247 4,200  Level FlightAware ADS-B
Fri 09:26:50 PM -23.6340 -46.7300 219° Southwest 225 259 5,200 1,909 Climbing FlightAware ADS-B
Fri 09:27:06 PM -23.6460 -46.7410 220° Southwest 221 254 5,600 732 Climbing FlightAware ADS-B
Fri 09:27:31 PM -23.6640 -46.7620 227° Southwest 242 278 5,700 1,132 Climbing FlightAware ADS-B
Fri 09:27:59 PM -23.6740 -46.7970 253° West 276 318 6,600 2,464 Climbing FlightAware ADS-B
Fri 09:28:27 PM -23.6860 -46.8360 251° West 286 329 8,000 3,429 Climbing FlightAware ADS-B
Fri 09:28:55 PM -23.6980 -46.8730 250° West 280 322 9,800 2,500 Climbing FlightAware ADS-B
Fri 09:29:39 PM -23.7180 -46.9360 251° West 323 372 11,000 1,790 Climbing FlightAware ADS-B
Fri 09:30:59 PM -23.6950 -47.0520 282° West 348 400 13,500 2,112 Climbing FlightAware ADS-B
Fri 09:31:44 PM -23.6500 -47.1290 303° West 360 414 15,400 2,372 Climbing FlightAware ADS-B
Fri 09:32:25 PM -23.6140 -47.1930 302° West 370 426 16,900 2,296 Climbing FlightAware ADS-B
Fri 09:33:05 PM -23.5760 -47.2590 302° West 375 432 18,500 2,132 Climbing FlightAware ADS-B
Fri 09:33:41 PM -23.5430 -47.3160 302° West 385 443 19,600 1,636 Climbing FlightAware ADS-B
Fri 09:34:22 PM -23.5020 -47.3850 303° West 399 459 20,600 1,571 Climbing FlightAware ADS-B
Fri 09:35:05 PM -23.4540 -47.4560 306° West 411 473 21,800 1,595 Climbing FlightAware ADS-B
Fri 09:35:41 PM -23.4130 -47.5160 307° West 417 480 22,700 1,342 Climbing FlightAware ADS-B
Fri 09:36:21 PM -23.3650 -47.5850 307° West 429 494 23,500 1,286 Climbing FlightAware ADS-B
Fri 09:37:05 PM -23.3140 -47.6600 307° West 436 502 24,500 1,186 Climbing FlightAware ADS-B
Fri 09:37:47 PM -23.2630 -47.7360 306° West 451 519 25,200 1,024 Climbing FlightAware ADS-B
Fri 09:38:27 PM -23.2130 -47.8090 307° West 460 529 25,900 1,143 Climbing FlightAware ADS-B
Fri 09:39:11 PM -23.1560 -47.8930 306° West 468 539 26,800 1,214 Climbing FlightAware ADS-B
Fri 09:39:51 PM -23.1030 -47.9690 307° West 473 544 27,600 1,169 Climbing FlightAware ADS-B
Fri 09:40:28 PM -23.0590 -48.0340 306° West 476 548 28,300 1,250 Climbing FlightAware ADS-B
Fri 09:41:03 PM -23.0100 -48.1050 307° West 478 550 29,100 1,325 Climbing FlightAware ADS-B
Fri 09:41:45 PM -22.9550 -48.1850 307° West 480 552 30,000 1,416 Climbing FlightAware ADS-B
Fri 09:42:32 PM -22.8910 -48.2770 307° West 475 547 31,200 1,379 Climbing FlightAware ADS-B
Fri 09:43:12 PM -22.8380 -48.3540 307° West 468 539 32,000 558 Climbing FlightAware ADS-B
Fri 09:43:58 PM -22.7770 -48.4420 307° West 468 539 32,000  Level FlightAware ADS-B
Fri 09:44:38 PM -22.7260 -48.5150 307° West 469 540 32,000 786 Level FlightAware ADS-B
Fri 09:45:22 PM -22.6690 -48.5970 307° West 462 532 33,100 1,286 Climbing FlightAware ADS-B
Fri 09:46:02 PM -22.6190 -48.6690 307° West 462 532 33,800 675 Climbing FlightAware ADS-B
Fri 09:46:42 PM -22.5650 -48.7470 307° West 477 549 34,000 143 Climbing FlightAware ADS-B
Fri 09:47:26 PM -22.5060 -48.8320 307° West 487 560 34,000  Level FlightAware ADS-B
Fri 09:48:11 PM -22.4460 -48.9180 307° West 486 559 34,000  Level FlightAware ADS-B
Fri 09:48:51 PM -22.3920 -48.9940 308° West 482 555 34,000  Level FlightAware ADS-B
Fri 09:49:31 PM -22.3380 -49.0720 307° West 482 555 34,000  Level FlightAware ADS-B
Fri 09:50:07 PM -22.2860 -49.1380 310° West 484 557 34,000  Level FlightAware ADS-B
Fri 09:50:51 PM -22.2180 -49.2140 314° West 483 556 34,000  Level FlightAware ADS-B
Fri 09:51:31 PM -22.1550 -49.2850 314° West 482 555 34,000  Level FlightAware ADS-B
Fri 09:52:07 PM -22.0990 -49.3470 314° West 481 554 34,000  Level FlightAware ADS-B
Fri 09:52:45 PM -22.0410 -49.4110 314° West 480 552 34,000  Level FlightAware ADS-B
Fri 09:53:31 PM -21.9690 -49.4920 314° West 480 552 34,000  Level FlightAware ADS-B
Fri 09:54:11 PM -21.9080 -49.5590 314° West 480 552 34,000 150 Level FlightAware ADS-B
Fri 09:54:51 PM -21.8460 -49.6290 314° West 481 554 34,200 714 Climbing FlightAware ADS-B
Fri 09:55:35 PM -21.7770 -49.7050 314° West 480 552 35,000 1,091 Climbing FlightAware ADS-B
Fri 09:56:19 PM -21.7090 -49.7810 314° West 478 550 35,800 750 Climbing FlightAware ADS-B
Fri 09:56:55 PM -21.6560 -49.8390 315° West 477 549 36,000 162 Climbing FlightAware ADS-B
Fri 09:57:33 PM -21.5950 -49.9060 314° West 475 547 36,000  Level FlightAware ADS-B
Fri 09:58:19 PM -21.5240 -49.9840 314° West 477 549 36,000  Level FlightAware ADS-B
Fri 09:58:59 PM -21.4640 -50.0520 313° West 478 550 36,000  Level FlightAware ADS-B
Fri 09:59:44 PM -21.3950 -50.1270 315° West 478 550 36,000  Level FlightAware ADS-B
Fri 10:00:42 PM -21.3320 -50.1980 314° West 477 549 36,000  Level FlightAware ADS-B
Fri 10:01:23 PM -21.2430 -50.2960 314° West 476 548 36,000  Level FlightAware ADS-B
Fri 10:02:09 PM -21.1730 -50.3730 314° West 476 548 36,000  Level FlightAware ADS-B
Fri 10:02:49 PM -21.1110 -50.4430 314° West 475 547 36,000  Level FlightAware ADS-B
Fri 10:03:29 PM -21.0490 -50.5120 314° West 475 547 36,000  Level FlightAware ADS-B
Fri 10:04:13 PM -20.9820 -50.5850 315° West 475 547 36,000  Level FlightAware ADS-B
Fri 10:04:55 PM -20.9190 -50.6550 314° West 475 547 36,000  Level FlightAware ADS-B
Fri 10:05:37 PM -20.8540 -50.7270 314° West 475 547 36,000  Level FlightAware ADS-B
Fri 10:06:17 PM -20.8030 -50.7850 313° West 475 547 36,000  Level FlightAware ADS-B
Fri 10:06:53 PM -20.7570 -50.8380 313° West 475 547 36,000  Level FlightAware ADS-B
Fri 10:07:29 PM -20.7110 -50.8900 313° West 475 547 36,000  Level FlightAware ADS-B
Fri 10:08:16 PM -20.6060 -50.9910 318° Northwest 478 550 36,000  Level FlightAware ADS-B
Fri 10:08:53 PM -20.5580 -51.0450 314° West 478 550 36,000  Level FlightAware ADS-B
Fri 10:09:29 PM -20.5110 -51.0970 314° West 478 550 36,000  Level FlightAware ADS-B
Fri 10:10:17 PM -20.4480 -51.1660 314° West 478 550 36,000  Level FlightAware ADS-B
Fri 10:10:53 PM -20.4010 -51.2180 314° West 478 550 36,000  Level FlightAware ADS-B
Fri 10:11:41 PM -20.3380 -51.2870 314° West 478 550 36,000  Level FlightAware ADS-B
Fri 10:12:17 PM -20.2910 -51.3390 314° West 478 550 36,000  Level FlightAware ADS-B
Fri 10:13:04 PM -20.2300 -51.4070 314° West 478 550 36,000  Level FlightAware ADS-B
Fri 10:13:39 PM -20.1030 -51.5290 318° Northwest 476 548 36,000  Level FlightAware ADS-B
Fri 10:14:25 PM -20.0300 -51.6080 315° West 476 548 36,000  Level FlightAware ADS-B
Fri 10:15:07 PM -19.9640 -51.6780 315° West 475 547 36,000  Level FlightAware ADS-B
Fri 10:15:41 PM -19.9120 -51.7330 315° West 475 547 36,000  Level FlightAware ADS-B
Fri 10:16:17 PM -19.8590 -51.7900 315° West 475 547 36,000  Level FlightAware ADS-B
Fri 10:17:04 PM -19.7840 -51.8700 315° West 478 550 36,000  Level FlightAware ADS-B
Fri 10:17:42 PM -19.7250 -51.9340 314° West 478 550 36,000  Level FlightAware ADS-B
Fri 10:18:22 PM -19.6610 -52.0010 315° West 479 551 36,000  Level FlightAware ADS-B
Fri 10:19:04 PM -19.5960 -52.0700 315° West 480 552 36,000  Level FlightAware ADS-B
Fri 10:19:38 PM -19.5430 -52.1260 315° West 479 551 36,000  Level FlightAware ADS-B
Fri 10:20:16 PM -19.4810 -52.1920 315° West 478 550 36,000  Level FlightAware ADS-B
Fri 10:21:02 PM -19.4110 -52.2660 315° West 476 548 36,000  Level FlightAware ADS-B
Fri 10:21:46 PM -19.3410 -52.3390 315° West 476 548 36,000  Level FlightAware ADS-B
Fri 10:22:26 PM -19.2810 -52.4040 314° West 475 547 36,000  Level FlightAware ADS-B
Fri 10:23:09 PM -19.2120 -52.4760 315° West 474 545 36,000  Level FlightAware ADS-B
Fri 10:23:51 PM -19.1460 -52.5450 315° West 474 545 36,000  Level FlightAware ADS-B
Fri 10:24:31 PM -19.0840 -52.6100 315° West 475 547 36,000  Level FlightAware ADS-B
Fri 10:25:11 PM -19.0210 -52.6760 315° West 475 547 36,000  Level FlightAware ADS-B
Fri 10:25:47 PM -18.9660 -52.7340 315° West 475 547 36,000  Level FlightAware ADS-B
Fri 10:26:29 PM -18.9000 -52.8030 315° West 475 547 36,000  Level FlightAware ADS-B
Fri 10:27:10 PM -18.8360 -52.8700 315° West 475 547 36,000  Level FlightAware ADS-B
Fri 10:27:51 PM -18.7720 -52.9380 315° West 476 548 36,000  Level FlightAware ADS-B
Fri 10:28:31 PM -18.7100 -53.0020 316° Northwest 477 549 36,000  Level FlightAware ADS-B
Fri 10:29:15 PM -18.6400 -53.0740 316° Northwest 477 549 36,000  Level FlightAware ADS-B
Fri 10:29:55 PM -18.5770 -53.1400 315° West 476 548 36,000  Level FlightAware ADS-B
Fri 10:30:39 PM -18.5080 -53.2120 315° West 476 548 36,000  Level FlightAware ADS-B
Fri 10:31:19 PM -18.4460 -53.2770 315° West 476 548 36,000  Level FlightAware ADS-B
Fri 10:32:03 PM -18.3760 -53.3490 316° Northwest 475 547 36,000  Level FlightAware ADS-B
Fri 10:32:43 PM -18.3140 -53.4140 315° West 475 547 36,000  Level FlightAware ADS-B
Fri 10:33:23 PM -18.2510 -53.4790 316° Northwest 474 545 36,000  Level FlightAware ADS-B
Fri 10:34:09 PM -18.1790 -53.5530 316° Northwest 473 544 36,000  Level FlightAware ADS-B
Fri 10:34:49 PM -18.1160 -53.6190 315° West 473 544 36,000  Level FlightAware ADS-B
Fri 10:35:29 PM -18.0530 -53.6840 316° Northwest 473 544 36,000  Level FlightAware ADS-B
Fri 10:36:09 PM -17.9930 -53.7460 315° West 472 543 36,000  Level FlightAware ADS-B
Fri 10:36:51 PM -17.9280 -53.8130 316° Northwest 471 542 36,000  Level FlightAware ADS-B
Fri 10:37:29 PM -17.8660 -53.8770 316° Northwest 472 543 36,000  Level FlightAware ADS-B
Fri 10:38:13 PM -17.8010 -53.9430 316° Northwest 473 544 36,000  Level FlightAware ADS-B
Fri 10:38:52 PM -17.7400 -54.0060 315° West 473 544 36,000  Level FlightAware ADS-B
Fri 10:39:31 PM -17.6760 -54.0720 315° West 473 544 36,000  Level FlightAware ADS-B
Fri 10:40:46 PM -17.5770 -54.1750 315° West 473 544 36,000  Level FlightAware ADS-B
Fri 10:41:35 PM -17.4840 -54.2690 316° Northwest 470 541 36,000  Level FlightAware ADS-B
Fri 10:42:17 PM -17.4170 -54.3370 316° Northwest 469 540 36,000  Level FlightAware ADS-B
Fri 10:42:58 PM -17.3620 -54.3940 315° West 469 540 36,000  Level FlightAware ADS-B
Fri 10:43:44 PM -17.3020 -54.4570 315° West 469 540 36,000  Level FlightAware ADS-B
Fri 10:44:20 PM -17.2310 -54.5270 317° Northwest 468 539 36,000  Level FlightAware ADS-B
Fri 10:44:59 PM -17.1690 -54.5900 316° Northwest 469 540 36,000  Level FlightAware ADS-B
Fri 10:45:54 PM -17.0890 -54.6730 315° West 468 539 36,000  Level FlightAware ADS-B
Fri 10:46:31 PM -17.0400 -54.7230 316° Northwest 468 539 36,000  Level FlightAware ADS-B
Fri 10:47:19 PM -16.9780 -54.7880 315° West 468 539 36,000  Level FlightAware ADS-B
Fri 10:47:55 PM -16.9310 -54.8370 315° West 468 539 36,000  Level FlightAware ADS-B
Fri 10:48:31 PM -16.8840 -54.8860 315° West 468 539 36,000  Level FlightAware ADS-B
Fri 10:49:19 PM -16.8220 -54.9520 314° West 468 539 36,000  Level FlightAware ADS-B
Fri 10:49:55 PM -16.7750 -55.0010 315° West 468 539 36,000  Level FlightAware ADS-B
Fri 10:50:30 PM -16.7290 -55.0480 316° Northwest 468 539 36,000  Level FlightAware ADS-B
Fri 10:51:18 PM -16.6670 -55.1130 315° West 468 539 36,000  Level FlightAware ADS-B
Fri 10:51:55 PM -16.6190 -55.1640 314° West 468 539 36,000  Level FlightAware ADS-B
Fri 10:52:43 PM -16.5560 -55.2290 315° West 468 539 36,000  Level FlightAware ADS-B
Fri 10:53:19 PM -16.5090 -55.2780 315° West 468 539 36,000  Level FlightAware ADS-B
Fri 10:54:07 PM -16.4470 -55.3430 315° West 468 539 36,000  Level FlightAware ADS-B
Fri 10:54:44 PM -16.3990 -55.3930 315° West 468 539 36,000  Level FlightAware ADS-B
Fri 10:55:20 PM -16.3520 -55.4420 315° West 468 539 36,000  Level FlightAware ADS-B
Fri 10:58:00 PM -16.1472 -55.6404 317° Northwest  Level Estimated
Fri 10:59:00 PM -16.0703 -55.7147 317° Northwest  Level Estimated
Fri 11:00:00 PM -15.9935 -55.7889 317° Northwest  Level Estimated
Fri 11:01:00 PM -15.9166 -55.8631 317° Northwest  Level Estimated
Fri 11:02:00 PM -15.8396 -55.9372 317° Northwest  Level Estimated
Fri 11:03:00 PM -15.7627 -56.0112 317° Northwest  Level Estimated
Fri 11:04:00 PM -15.6857 -56.0853 317° Northwest  Level Estimated
Fri 11:05:00 PM -15.6529 -56.1167 317° Northwest  Level Estimated
Fri 11:06:00 PM -15.6529 -56.1167 136° Southeast  Level Estimated
Fri 11:07:00 PM -15.6529 -56.1167 136° Southeast  Level Estimated
Fri 11:08:00 PM -15.6529 -56.1167 136° Southeast  Level Estimated
Fri 11:09:00 PM -15.6529 -56.1167 136° Southeast  Level Estimated
Fri 11:10:00 PM -15.6529 -56.1167 136° Southeast  Level Estimated
Fri 11:11:00 PM -15.6529 -56.1167 136° Southeast  Level Estimated
Fri 11:12:00 PM -15.6529 -56.1167 136° Southeast  Level Estimated
Fri 11:13:00 PM -15.6529 -56.1167 136° Southeast  Level Estimated
Fri 11:14:00 PM -15.6529 -56.1167 136° Southeast  Level Estimated
Fri 11:15:00 PM -15.6529 -56.1167 136° Southeast  Level Estimated
Fri 11:16:00 PM -15.6529 -56.1167 136° Southeast  Level Estimated
Fri 11:17:00 PM -15.6529 -56.1167 136° Southeast  Level Estimated
Fri 11:18:00 PM -15.6529 -56.1167 136° Southeast  Level Estimated
Fri 11:19:00 PM -15.6529 -56.1167 136° Southeast  Level Estimated
Fri 11:20:00 PM -15.6529 -56.1167 136° Southeast  Level Estimated

Login

Don't have an account? Register now (free) for customized features, flight alerts, and more!